createdAt,value
2024-01-09T00:02:09.790Z,18.23
2024-01-09T00:04:37.764Z,17.10
2024-01-09T00:07:05.829Z,16.52
2024-01-09T00:09:35.316Z,16.35
2024-01-09T00:12:06.675Z,17.05
2024-01-09T00:14:34.859Z,17.33
2024-01-09T00:17:01.708Z,19.67
2024-01-09T00:19:31.290Z,18.35
2024-01-09T00:22:01.591Z,16.67
2024-01-09T00:24:28.403Z,18.40
2024-01-09T00:26:56.685Z,23.10
2024-01-09T00:29:23.565Z,21.95
2024-01-09T00:31:51.685Z,22.35
2024-01-09T00:34:18.561Z,27.13
2024-01-09T00:36:46.681Z,24.88
2024-01-09T00:39:14.717Z,23.75
2024-01-09T00:41:41.976Z,30.17
2024-01-09T00:44:10.228Z,27.95
2024-01-09T00:46:37.357Z,24.27
2024-01-09T00:49:10.295Z,23.50
2024-01-09T00:51:39.338Z,22.52
2024-01-09T00:54:07.440Z,20.40
2024-01-09T00:56:34.516Z,19.92
2024-01-09T00:59:02.570Z,18.13
2024-01-09T01:01:29.420Z,18.58
2024-01-09T01:03:56.164Z,19.27
2024-01-09T01:06:25.039Z,21.92
2024-01-09T01:08:51.805Z,19.27
2024-01-09T01:11:18.601Z,18.38
2024-01-09T01:13:46.590Z,17.70
2024-01-09T01:16:14.632Z,22.25
2024-01-09T01:18:41.410Z,17.65
2024-01-09T01:21:09.932Z,17.52
2024-01-09T01:23:36.747Z,17.63
2024-01-09T01:26:07.265Z,18.65
2024-01-09T01:28:34.282Z,19.35
2024-01-09T01:31:02.656Z,18.67
2024-01-09T01:33:29.915Z,18.52
2024-01-09T01:35:58.288Z,23.70
2024-01-09T01:38:26.696Z,19.08
2024-01-09T01:40:53.897Z,23.10
2024-01-09T01:43:23.107Z,21.30
2024-01-09T01:45:52.670Z,19.25
2024-01-09T01:48:22.419Z,24.45
2024-01-09T01:50:50.229Z,20.58
2024-01-09T01:53:19.133Z,20.17
2024-01-09T01:55:46.614Z,21.83
2024-01-09T01:58:15.583Z,19.15
2024-01-09T02:00:42.896Z,20.90
2024-01-09T02:03:11.183Z,19.17
2024-01-09T02:05:43.772Z,23.80
2024-01-09T02:08:15.336Z,22.43
2024-01-09T02:10:44.692Z,20.98
2024-01-09T02:13:11.481Z,22.83
2024-01-09T02:15:39.666Z,19.50
2024-01-09T02:18:10.091Z,21.07
2024-01-09T02:20:38.053Z,19.95
2024-01-09T02:23:04.976Z,19.65
2024-01-09T02:25:31.964Z,19.73
2024-01-09T02:28:23.538Z,19.40
2024-01-09T02:30:52.921Z,19.88
2024-01-09T02:33:21.296Z,19.40
2024-01-09T02:35:49.517Z,22.63
2024-01-09T02:38:17.015Z,25.95
2024-01-09T02:40:45.097Z,22.85
2024-01-09T02:43:13.409Z,18.98
2024-01-09T02:49:03.616Z,22.63
2024-01-09T02:51:31.715Z,21.00
2024-01-09T02:53:58.437Z,22.58
2024-01-09T02:56:25.312Z,20.42
2024-01-09T02:58:52.092Z,20.80
2024-01-09T03:01:20.199Z,21.30
2024-01-09T03:03:48.531Z,25.77
2024-01-09T03:06:15.605Z,20.52
2024-01-09T03:08:42.619Z,22.75
2024-01-09T03:11:09.483Z,21.67
2024-01-09T03:13:40.007Z,20.52
2024-01-09T03:16:14.998Z,25.93
2024-01-09T03:18:42.635Z,22.83
2024-01-09T03:21:13.500Z,23.52
2024-01-09T03:23:40.596Z,22.58
2024-01-09T03:26:07.356Z,24.48
2024-01-09T03:28:37.652Z,23.35
2024-01-09T03:31:05.986Z,22.23
2024-01-09T03:33:34.066Z,22.98
2024-01-09T03:36:05.652Z,21.67
2024-01-09T03:38:34.028Z,25.48
2024-01-09T03:41:00.872Z,24.25
2024-01-09T03:43:27.644Z,21.33
2024-01-09T03:45:55.005Z,25.85
2024-01-09T03:48:21.822Z,24.08
2024-01-09T03:50:50.338Z,21.35
2024-01-09T03:53:19.201Z,23.52
2024-01-09T03:55:47.393Z,24.25
2024-01-09T03:58:14.341Z,26.55
2024-01-09T04:00:41.178Z,24.73
2024-01-09T04:03:10.270Z,24.40
2024-01-09T04:05:38.521Z,24.75
2024-01-09T04:08:06.840Z,28.13
2024-01-09T04:10:33.675Z,27.92
2024-01-09T04:13:02.634Z,26.35
2024-01-09T04:15:29.868Z,26.95
2024-01-09T04:17:56.802Z,26.92
2024-01-09T04:20:23.726Z,27.35
2024-01-09T04:22:54.225Z,24.17
2024-01-09T04:25:21.031Z,29.47
2024-01-09T04:27:47.854Z,24.58
2024-01-09T04:30:15.830Z,28.33
2024-01-09T04:32:43.801Z,27.73
2024-01-09T04:35:12.025Z,26.30
2024-01-09T04:37:39.978Z,30.30
2024-01-09T04:40:08.335Z,25.23
2024-01-09T04:42:35.867Z,27.83
2024-01-09T04:45:04.358Z,27.05
2024-01-09T04:47:31.374Z,28.23
2024-01-09T04:49:58.168Z,28.38
2024-01-09T04:52:25.024Z,26.85
2024-01-09T04:54:51.739Z,26.63
2024-01-09T04:57:18.502Z,27.15
2024-01-09T04:59:49.199Z,30.23
2024-01-09T05:02:17.622Z,29.60
2024-01-09T05:04:44.404Z,30.33
2024-01-09T05:07:12.418Z,27.15
2024-01-09T05:09:39.187Z,25.48
2024-01-09T05:12:08.518Z,30.55
2024-01-09T05:14:35.413Z,29.00
2024-01-09T05:17:03.334Z,26.60
2024-01-09T05:19:30.160Z,24.45
2024-01-09T05:21:58.252Z,30.10
2024-01-09T05:24:26.575Z,25.90
2024-01-09T05:26:57.675Z,30.67
2024-01-09T05:29:26.054Z,29.38
2024-01-09T05:31:52.857Z,26.38
2024-01-09T05:34:19.920Z,34.58
2024-01-09T05:36:46.788Z,35.22
2024-01-09T05:39:14.788Z,30.60
2024-01-09T05:41:41.591Z,29.95
2024-01-09T05:44:08.775Z,35.65
2024-01-09T05:46:36.724Z,30.45
2024-01-09T05:49:03.633Z,29.58
2024-01-09T05:51:31.827Z,30.02
2024-01-09T05:53:58.670Z,28.10
2024-01-09T05:56:25.576Z,35.15
2024-01-09T05:58:52.435Z,30.02
2024-01-09T06:01:20.451Z,29.25
2024-01-09T06:03:47.810Z,31.00
2024-01-09T06:06:16.124Z,27.38
2024-01-09T06:08:43.109Z,31.48
2024-01-09T06:11:10.942Z,37.03
2024-01-09T06:13:37.783Z,34.10
2024-01-09T06:16:06.057Z,31.83
2024-01-09T06:18:32.920Z,32.28
2024-01-09T06:21:01.428Z,30.65
2024-01-09T06:23:28.315Z,29.90
2024-01-09T06:25:56.496Z,30.08
2024-01-09T06:28:23.278Z,32.60
2024-01-09T06:30:50.793Z,32.92
2024-01-09T06:33:19.030Z,37.85
2024-01-09T06:35:47.072Z,31.55
2024-01-09T06:38:15.331Z,34.60
2024-01-09T06:40:43.151Z,37.13
2024-01-09T06:43:10.798Z,35.72
2024-01-09T06:45:37.567Z,34.35
2024-01-09T06:48:05.903Z,37.07
2024-01-09T06:50:38.102Z,36.55
2024-01-09T06:53:05.454Z,31.83
2024-01-09T06:55:32.299Z,32.88
2024-01-09T06:57:59.115Z,36.28
2024-01-09T07:00:25.934Z,37.28
2024-01-09T07:02:53.038Z,36.83
2024-01-09T07:05:21.668Z,41.88
2024-01-09T07:07:50.819Z,37.78
2024-01-09T07:10:19.435Z,36.35
2024-01-09T07:12:47.951Z,32.60
2024-01-09T07:15:17.301Z,31.65
2024-01-09T07:17:46.982Z,35.58
2024-01-09T07:20:14.966Z,37.13
2024-01-09T07:22:47.806Z,33.72
2024-01-09T07:25:17.122Z,36.28
2024-01-09T07:27:45.038Z,35.83
2024-01-09T07:30:14.011Z,39.43
2024-01-09T07:32:42.592Z,33.53
2024-01-09T07:35:11.023Z,42.10
2024-01-09T07:37:38.781Z,42.20
2024-01-09T07:40:09.801Z,37.70
2024-01-09T07:42:46.240Z,38.63
2024-01-09T07:45:21.586Z,45.22
2024-01-09T07:47:51.331Z,41.88
2024-01-09T07:50:19.270Z,45.58
2024-01-09T07:52:47.522Z,41.75
2024-01-09T07:55:17.846Z,37.00
2024-01-09T07:57:45.860Z,38.03
2024-01-09T08:00:16.507Z,35.60
2024-01-09T08:02:46.606Z,35.47
2024-01-09T08:05:15.755Z,37.25
2024-01-09T08:07:42.645Z,35.72
2024-01-09T08:10:11.290Z,35.92
2024-01-09T08:12:38.086Z,44.40
2024-01-09T08:15:06.504Z,37.58
2024-01-09T08:17:33.389Z,38.15
2024-01-09T08:20:02.433Z,44.40
2024-01-09T08:22:29.221Z,40.60
2024-01-09T08:24:56.101Z,32.75
2024-01-09T08:27:23.069Z,38.83
2024-01-09T08:29:51.431Z,44.35
2024-01-09T08:32:18.397Z,42.53
2024-01-09T08:34:46.796Z,40.15
2024-01-09T08:37:13.684Z,39.03
2024-01-09T08:39:41.551Z,37.33
2024-01-09T08:42:09.642Z,43.65
2024-01-09T08:44:39.200Z,39.33
2024-01-09T08:47:08.263Z,41.17
2024-01-09T08:49:35.050Z,45.97
2024-01-09T08:52:01.908Z,39.58
2024-01-09T08:54:28.675Z,42.55
2024-01-09T08:56:55.546Z,46.10
2024-01-09T08:59:22.424Z,48.27
2024-01-09T09:01:50.502Z,47.15
2024-01-09T09:04:18.592Z,45.00
2024-01-09T09:06:45.744Z,42.80
2024-01-09T09:09:15.419Z,47.58
2024-01-09T09:11:44.239Z,47.17
2024-01-09T09:14:13.872Z,43.40
2024-01-09T09:16:43.005Z,40.47
2024-01-09T09:19:12.526Z,40.53
2024-01-09T09:21:39.415Z,38.25
2024-01-09T09:24:07.479Z,44.27
2024-01-09T09:26:34.672Z,42.72
2024-01-09T09:29:10.527Z,40.13
2024-01-09T09:31:45.399Z,40.22
2024-01-09T09:34:13.413Z,38.58
2024-01-09T09:36:41.446Z,41.83
2024-01-09T09:39:09.429Z,77.22
2024-01-09T09:41:37.879Z,51.55
2024-01-09T09:44:05.992Z,43.65
2024-01-09T09:46:37.294Z,42.03
2024-01-09T09:49:07.081Z,38.65
2024-01-09T09:51:38.166Z,43.60
2024-01-09T09:54:09.416Z,46.73
2024-01-09T09:56:39.327Z,43.78
2024-01-09T09:59:10.720Z,42.50
2024-01-09T10:01:42.892Z,44.90
2024-01-09T10:04:41.237Z,44.38
2024-01-09T10:07:15.712Z,42.50
2024-01-09T10:09:45.869Z,49.50
2024-01-09T10:12:15.943Z,44.92
2024-01-09T10:15:14.120Z,42.83
2024-01-09T10:17:45.330Z,42.50
2024-01-09T10:20:13.775Z,46.42
2024-01-09T10:22:40.782Z,41.75
2024-01-09T10:25:10.974Z,44.95
2024-01-09T10:27:41.093Z,40.33
2024-01-09T10:30:12.952Z,41.50
2024-01-09T10:32:45.236Z,39.28
2024-01-09T10:35:15.016Z,40.13
2024-01-09T10:37:43.691Z,41.55
2024-01-09T10:40:12.263Z,43.20
2024-01-09T10:42:46.266Z,43.40
2024-01-09T10:45:16.078Z,42.42
2024-01-09T10:47:44.937Z,41.25
2024-01-09T10:50:13.437Z,48.83
2024-01-09T10:52:42.475Z,43.78
2024-01-09T10:55:11.416Z,38.85
2024-01-09T10:57:43.661Z,38.87
2024-01-09T11:00:13.185Z,40.38
2024-01-09T11:02:41.020Z,43.15
2024-01-09T11:05:11.481Z,40.65
2024-01-09T11:07:42.532Z,45.33
2024-01-09T11:10:16.831Z,41.17
2024-01-09T11:12:47.752Z,43.80
2024-01-09T11:15:27.402Z,35.60
2024-01-09T11:18:05.968Z,35.50
2024-01-09T11:20:34.617Z,38.35
2024-01-09T11:23:02.460Z,35.80
2024-01-09T11:25:29.279Z,36.88
2024-01-09T11:27:56.216Z,40.85
2024-01-09T11:30:26.739Z,39.92
2024-01-09T11:32:56.904Z,41.30
2024-01-09T11:35:26.580Z,44.00
2024-01-09T11:37:53.714Z,41.42
2024-01-09T11:40:22.697Z,38.40
2024-01-09T11:42:53.948Z,37.50
2024-01-09T11:45:26.347Z,39.72
2024-01-09T11:47:53.938Z,41.15
2024-01-09T11:50:22.452Z,37.45
2024-01-09T11:52:53.378Z,39.28
2024-01-09T11:55:22.016Z,34.85
2024-01-09T11:57:50.260Z,34.93
2024-01-09T12:00:18.768Z,34.92
2024-01-09T12:02:47.392Z,34.30
2024-01-09T12:05:15.882Z,32.92
2024-01-09T12:07:45.069Z,37.33
2024-01-09T12:10:21.638Z,34.30
2024-01-09T12:13:05.061Z,31.52
2024-01-09T12:15:32.864Z,36.17
2024-01-09T12:18:01.171Z,32.63
2024-01-09T12:20:28.055Z,31.35
2024-01-09T12:22:56.662Z,36.15
2024-01-09T12:25:24.012Z,31.90
2024-01-09T12:27:51.184Z,32.33
2024-01-09T12:30:18.222Z,35.58
2024-01-09T12:32:46.451Z,30.90
2024-01-09T12:35:14.854Z,35.10
2024-01-09T12:37:43.803Z,36.88
2024-01-09T12:40:16.877Z,38.05
2024-01-09T12:42:46.098Z,36.15
2024-01-09T12:45:15.484Z,40.28
2024-01-09T12:47:43.221Z,30.50
2024-01-09T12:50:27.893Z,34.35
2024-01-09T12:52:54.955Z,38.15
2024-01-09T12:55:21.749Z,41.63
2024-01-09T12:57:49.700Z,32.97
2024-01-09T13:00:21.794Z,35.55
2024-01-09T13:02:49.690Z,35.05
2024-01-09T13:05:16.661Z,36.92
2024-01-09T13:07:43.589Z,37.78
2024-01-09T13:10:12.173Z,34.80
2024-01-09T13:12:38.992Z,35.33
2024-01-09T13:15:06.181Z,34.55
2024-01-09T13:17:35.157Z,33.38
2024-01-09T13:20:03.361Z,34.88
2024-01-09T13:25:01.084Z,33.03
2024-01-09T13:27:29.459Z,32.73
2024-01-09T13:32:28.117Z,35.90
2024-01-09T13:34:55.197Z,33.72
2024-01-09T13:37:23.193Z,34.08
2024-01-09T13:39:51.178Z,32.25
2024-01-09T13:42:18.667Z,34.50
2024-01-09T13:44:46.911Z,40.15
2024-01-09T13:47:13.747Z,38.67
2024-01-09T13:51:41.531Z,30.02
2024-01-09T13:52:29.575Z,30.52
2024-01-09T13:54:56.620Z,35.97
2024-01-09T13:57:23.924Z,28.35
2024-01-09T13:59:51.423Z,34.07
2024-01-09T14:02:19.631Z,31.77
2024-01-09T14:04:46.488Z,30.42
2024-01-09T14:07:15.957Z,27.65
2024-01-09T14:09:42.796Z,31.45
2024-01-09T14:12:11.179Z,32.10
2024-01-09T14:14:37.971Z,29.17
2024-01-09T14:17:05.894Z,29.88
2024-01-09T14:19:33.736Z,27.13
2024-01-09T14:22:00.573Z,26.23
2024-01-09T14:24:27.553Z,27.98
2024-01-09T14:26:54.919Z,29.38
2024-01-09T14:29:21.745Z,31.03
2024-01-09T14:31:50.698Z,23.67
2024-01-09T14:34:18.654Z,25.85
2024-01-09T14:36:46.879Z,29.17
2024-01-09T14:39:14.704Z,28.92
2024-01-09T14:41:43.020Z,24.98
2024-01-09T14:44:11.430Z,26.30
2024-01-09T14:46:38.251Z,25.27
2024-01-09T14:49:05.885Z,25.08
2024-01-09T14:51:36.410Z,26.08
2024-01-09T14:54:04.882Z,27.08
2024-01-09T14:56:32.924Z,25.73
2024-01-09T14:58:59.782Z,22.27
2024-01-09T15:01:26.711Z,29.15
2024-01-09T15:03:54.126Z,21.42
2024-01-09T15:06:21.030Z,26.40
2024-01-09T15:08:47.868Z,22.52
2024-01-09T15:11:14.686Z,24.05
2024-01-09T15:13:41.616Z,26.73
2024-01-09T15:16:08.909Z,29.92
2024-01-09T15:18:35.787Z,26.35
2024-01-09T15:21:03.884Z,23.50
2024-01-09T15:23:32.367Z,23.27
2024-01-09T15:25:59.831Z,29.13
2024-01-09T15:28:27.963Z,24.27
2024-01-09T15:30:54.986Z,30.92
2024-01-09T15:33:21.960Z,24.80
2024-01-09T15:35:49.979Z,26.85
2024-01-09T15:38:16.813Z,27.83
2024-01-09T15:40:44.854Z,24.23
2024-01-09T15:43:11.923Z,27.92
2024-01-09T15:45:38.678Z,28.85
2024-01-09T15:48:10.016Z,27.75
2024-01-09T15:50:38.218Z,26.90
2024-01-09T15:53:06.599Z,24.50
2024-01-09T15:55:34.700Z,25.42
2024-01-09T15:58:04.608Z,26.10
2024-01-09T16:00:31.404Z,27.45
2024-01-09T16:02:58.181Z,26.80
2024-01-09T16:05:26.406Z,26.63
2024-01-09T16:07:54.743Z,22.67
2024-01-09T16:10:21.870Z,24.67
2024-01-09T16:12:50.096Z,23.02
2024-01-09T16:15:17.606Z,25.70
2024-01-09T16:17:45.773Z,23.45
2024-01-09T16:20:12.803Z,28.63
2024-01-09T16:22:40.746Z,26.83
2024-01-09T16:25:08.539Z,27.27
2024-01-09T16:27:37.009Z,26.07
2024-01-09T16:30:04.499Z,28.73
2024-01-09T16:32:32.572Z,27.17
2024-01-09T16:35:01.877Z,28.50
2024-01-09T16:37:28.840Z,34.92
2024-01-09T16:39:55.725Z,33.10
2024-01-09T16:42:22.627Z,30.67
2024-01-09T16:44:50.463Z,32.58
2024-01-09T16:47:20.653Z,28.65
2024-01-09T16:49:47.622Z,28.08
2024-01-09T16:52:15.998Z,27.67
2024-01-09T16:54:43.835Z,24.15
2024-01-09T16:57:12.055Z,29.77
2024-01-09T16:59:38.805Z,35.00
2024-01-09T17:02:07.142Z,30.80
2024-01-09T17:04:34.080Z,33.10
2024-01-09T17:07:02.290Z,36.58
2024-01-09T17:09:29.069Z,35.55
2024-01-09T17:11:56.948Z,34.55
2024-01-09T17:14:25.909Z,37.75
2024-01-09T17:16:53.677Z,40.25
2024-01-09T17:19:20.698Z,37.95
2024-01-09T17:21:48.524Z,40.87
2024-01-09T17:24:15.315Z,39.63
2024-01-09T17:26:42.577Z,40.92
2024-01-09T17:29:10.433Z,38.80
2024-01-09T17:31:37.284Z,41.90
2024-01-09T17:34:05.516Z,40.38
2024-01-09T17:36:32.315Z,37.45
2024-01-09T17:38:59.546Z,40.30
2024-01-09T17:41:26.361Z,44.25
2024-01-09T17:43:53.198Z,44.03
2024-01-09T17:46:22.769Z,45.50
2024-01-09T17:48:50.685Z,44.80
2024-01-09T17:51:18.621Z,42.25
2024-01-09T17:53:45.598Z,41.53
2024-01-09T17:56:13.997Z,44.58
2024-01-09T17:58:41.148Z,47.13
2024-01-09T18:01:09.331Z,44.03
2024-01-09T18:03:37.176Z,43.42
2024-01-09T18:06:06.262Z,42.72
2024-01-09T18:08:36.068Z,50.33
2024-01-09T18:11:04.239Z,47.22
2024-01-09T18:13:31.129Z,48.58
2024-01-09T18:15:58.054Z,50.90
2024-01-09T18:18:25.130Z,51.35
2024-01-09T18:20:54.023Z,56.17
2024-01-09T18:23:21.731Z,52.75
2024-01-09T18:25:51.896Z,62.72
2024-01-09T18:28:26.607Z,52.25
2024-01-09T18:30:57.707Z,57.08
2024-01-09T18:33:25.100Z,56.88
2024-01-09T18:35:53.152Z,57.15
2024-01-09T18:38:20.353Z,60.78
2024-01-09T18:40:48.742Z,54.60
2024-01-09T18:43:15.630Z,61.30
2024-01-09T18:45:45.374Z,62.30
2024-01-09T18:48:15.057Z,58.83
2024-01-09T18:50:42.308Z,55.38
2024-01-09T18:53:10.401Z,60.72
2024-01-09T18:55:38.815Z,60.03
2024-01-09T18:58:06.664Z,60.87
2024-01-09T19:00:34.743Z,59.20
2024-01-09T19:03:03.596Z,63.55
2024-01-09T19:05:30.844Z,63.47
2024-01-09T19:07:57.882Z,63.63
2024-01-09T19:10:25.440Z,56.70
2024-01-09T19:12:52.354Z,60.50
2024-01-09T19:15:20.816Z,63.05
2024-01-09T19:17:50.216Z,67.10
2024-01-09T19:20:20.264Z,75.05
2024-01-09T19:22:50.005Z,71.47
2024-01-09T19:25:20.489Z,75.47
2024-01-09T19:27:47.545Z,67.65
2024-01-09T19:30:15.968Z,64.20
2024-01-09T19:32:45.343Z,67.70
2024-01-09T19:35:14.207Z,72.80
2024-01-09T19:37:44.537Z,62.10
2024-01-09T19:40:13.081Z,63.30
2024-01-09T19:42:41.481Z,64.97
2024-01-09T19:45:11.208Z,66.85
2024-01-09T19:47:39.821Z,65.22
2024-01-09T19:50:08.704Z,63.45
2024-01-09T19:52:36.772Z,68.30
2024-01-09T19:55:05.329Z,65.53
2024-01-09T19:57:32.227Z,68.57
2024-01-09T20:00:00.584Z,62.47
2024-01-09T20:02:28.812Z,70.82
2024-01-09T20:04:56.181Z,68.75
2024-01-09T20:07:23.648Z,68.43
2024-01-09T20:09:51.880Z,68.00
2024-01-09T20:12:18.774Z,72.05
2024-01-09T20:14:46.997Z,88.28
2024-01-09T20:17:14.909Z,76.18
2024-01-09T20:19:46.310Z,76.38
2024-01-09T20:22:16.085Z,75.72
2024-01-09T20:24:43.641Z,77.45
2024-01-09T20:27:15.096Z,74.30
2024-01-09T20:29:44.141Z,69.82
2024-01-09T20:32:11.094Z,76.90
2024-01-09T20:34:40.397Z,69.57
2024-01-09T20:37:07.333Z,76.57
2024-01-09T20:39:36.939Z,78.25
2024-01-09T20:42:04.101Z,73.75
2024-01-09T20:44:32.052Z,75.47
2024-01-09T20:47:00.621Z,75.53
2024-01-09T20:49:29.003Z,79.10
2024-01-09T20:51:58.059Z,85.70
2024-01-09T20:54:24.976Z,75.90
2024-01-09T20:56:51.884Z,77.75
2024-01-09T20:59:20.724Z,79.55
2024-01-09T21:01:49.354Z,78.80
2024-01-09T21:04:16.312Z,72.25
2024-01-09T21:06:49.113Z,76.32
2024-01-09T21:09:16.756Z,76.82
2024-01-09T21:11:44.072Z,76.83
2024-01-09T21:14:11.239Z,78.47
2024-01-09T21:16:39.549Z,79.18
2024-01-09T21:19:06.660Z,75.40
2024-01-09T21:21:35.027Z,76.00
2024-01-09T21:24:01.965Z,75.63
2024-01-09T21:26:29.975Z,73.88
2024-01-09T21:28:58.129Z,84.85
2024-01-09T21:31:27.333Z,77.57
2024-01-09T21:33:55.444Z,75.68
2024-01-09T21:36:22.497Z,72.85
2024-01-09T21:38:52.333Z,78.22
2024-01-09T21:41:19.473Z,69.38
2024-01-09T21:43:49.326Z,76.85
2024-01-09T21:46:17.475Z,76.25
2024-01-09T21:48:46.083Z,78.78
2024-01-09T21:51:14.233Z,78.78
2024-01-09T21:53:41.594Z,77.57
2024-01-09T21:56:09.793Z,85.75
2024-01-09T21:58:36.828Z,76.80
2024-01-09T22:01:05.285Z,80.97
2024-01-09T22:03:32.240Z,85.50
2024-01-09T22:06:00.589Z,80.30
2024-01-09T22:08:29.873Z,80.93
2024-01-09T22:10:57.652Z,84.43
2024-01-09T22:13:26.147Z,88.55
2024-01-09T22:15:53.025Z,82.35
2024-01-09T22:18:20.864Z,85.13
2024-01-09T22:20:51.382Z,82.65
2024-01-09T22:23:21.955Z,87.32
2024-01-09T22:25:51.598Z,79.20
2024-01-09T22:28:19.980Z,85.93
2024-01-09T22:30:47.766Z,79.87
2024-01-09T22:33:16.102Z,83.27
2024-01-09T22:35:44.095Z,86.22
2024-01-09T22:38:11.596Z,93.65
2024-01-09T22:40:38.569Z,79.88
2024-01-09T22:43:05.590Z,79.82
2024-01-09T22:45:33.975Z,85.70
2024-01-09T22:48:02.377Z,84.73
2024-01-09T22:50:29.349Z,86.85
2024-01-09T22:52:56.342Z,90.55
2024-01-09T22:55:23.250Z,90.40
2024-01-09T22:57:50.510Z,87.72
2024-01-09T23:00:26.369Z,89.50
2024-01-09T23:02:54.796Z,92.30
2024-01-09T23:05:22.104Z,90.15
2024-01-09T23:07:52.937Z,93.07
2024-01-09T23:10:22.057Z,94.93
2024-01-09T23:12:49.107Z,90.97
2024-01-09T23:15:17.424Z,100.75
2024-01-09T23:17:44.450Z,95.07
2024-01-09T23:20:14.993Z,91.65
2024-01-09T23:22:45.102Z,85.93
2024-01-09T23:25:15.380Z,91.13
2024-01-09T23:27:43.547Z,94.75
2024-01-09T23:30:10.795Z,86.00
2024-01-09T23:32:37.790Z,96.35
2024-01-09T23:35:06.047Z,91.35
2024-01-09T23:37:34.098Z,95.50
2024-01-09T23:40:02.183Z,93.10
2024-01-09T23:42:29.298Z,91.05
2024-01-09T23:44:56.757Z,91.57
2024-01-09T23:47:23.909Z,95.13
2024-01-09T23:49:52.430Z,95.35
2024-01-09T23:52:23.233Z,101.07
2024-01-09T23:54:51.800Z,102.30
2024-01-09T23:57:18.904Z,100.75
2024-01-09T23:59:47.244Z,103.65
